createdAt,value
2023-01-03T00:01:51.766Z,44.75
2023-01-03T00:04:21.962Z,49.75
2023-01-03T00:06:51.662Z,44.50
2023-01-03T00:09:22.707Z,44.75
2023-01-03T00:12:10.882Z,40.50
2023-01-03T00:14:40.819Z,46.75
2023-01-03T00:17:09.584Z,43.25
2023-01-03T00:19:43.087Z,43.00
2023-01-03T00:22:11.954Z,43.75
2023-01-03T00:24:40.160Z,43.50
2023-01-03T00:27:08.629Z,48.00
2023-01-03T00:29:36.796Z,48.25
2023-01-03T00:32:05.408Z,49.25
2023-01-03T00:34:34.639Z,51.25
2023-01-03T00:37:03.313Z,51.00
2023-01-03T00:39:31.351Z,49.75
2023-01-03T00:41:58.984Z,51.75
2023-01-03T00:44:26.764Z,46.75
2023-01-03T00:46:54.546Z,44.00
2023-01-03T00:49:26.646Z,41.75
2023-01-03T00:51:55.762Z,44.25
2023-01-03T00:54:24.044Z,41.50
2023-01-03T00:56:52.675Z,46.00
2023-01-03T00:59:21.379Z,51.00
2023-01-03T01:01:54.375Z,40.00
2023-01-03T01:04:29.093Z,44.75
2023-01-03T01:07:04.444Z,43.25
2023-01-03T01:09:35.683Z,42.75
2023-01-03T01:12:05.425Z,44.25
2023-01-03T01:14:33.921Z,46.00
2023-01-03T01:17:07.924Z,45.75
2023-01-03T01:19:42.433Z,47.25
2023-01-03T01:22:13.336Z,44.25
2023-01-03T01:24:41.723Z,50.75
2023-01-03T01:27:09.475Z,45.25
2023-01-03T01:29:38.981Z,43.75
2023-01-03T01:32:07.342Z,43.50
2023-01-03T01:34:34.962Z,41.25
2023-01-03T01:37:02.620Z,44.50
2023-01-03T01:39:30.825Z,39.25
2023-01-03T01:42:24.047Z,42.50
2023-01-03T01:44:59.004Z,38.75
2023-01-03T01:47:47.588Z,40.00
2023-01-03T01:50:43.638Z,45.50
2023-01-03T01:53:24.200Z,35.75
2023-01-03T01:56:00.858Z,29.00
2023-01-03T01:58:35.027Z,33.50
2023-01-03T02:01:17.991Z,39.00
2023-01-03T02:03:52.495Z,40.00
2023-01-03T02:06:20.458Z,42.25
2023-01-03T02:08:48.537Z,43.00
2023-01-03T02:11:25.091Z,43.25
2023-01-03T02:14:15.348Z,41.75
2023-01-03T02:17:21.054Z,36.75
2023-01-03T02:19:48.636Z,35.00
2023-01-03T02:22:53.420Z,35.25
2023-01-03T02:25:27.200Z,32.00
2023-01-03T02:28:13.799Z,35.75
2023-01-03T02:30:52.600Z,37.75
2023-01-03T02:33:41.952Z,31.75
2023-01-03T02:36:09.537Z,36.25
2023-01-03T02:38:42.884Z,34.00
2023-01-03T02:41:35.339Z,33.75
2023-01-03T02:44:11.633Z,27.50
2023-01-03T02:47:07.671Z,30.50
2023-01-03T02:49:41.714Z,31.50
2023-01-03T02:52:16.891Z,31.25
2023-01-03T02:54:51.499Z,22.75
2023-01-03T02:57:24.669Z,21.75
2023-01-03T03:00:00.909Z,25.75
2023-01-03T03:02:35.492Z,25.50
2023-01-03T03:05:08.479Z,27.00
2023-01-03T03:07:39.418Z,24.25
2023-01-03T03:10:27.779Z,25.00
2023-01-03T03:13:13.514Z,23.25
2023-01-03T03:16:10.118Z,28.00
2023-01-03T03:18:57.597Z,27.50
2023-01-03T03:21:49.838Z,16.25
2023-01-03T03:24:40.674Z,20.75
2023-01-03T03:27:31.383Z,26.00
2023-01-03T03:30:03.215Z,23.00
2023-01-03T03:32:34.435Z,21.25
2023-01-03T03:35:04.781Z,21.75
2023-01-03T03:37:39.011Z,24.75
2023-01-03T03:40:26.744Z,21.25
2023-01-03T03:43:34.755Z,27.75
2023-01-03T03:46:13.207Z,24.50
2023-01-03T03:49:14.192Z,22.75
2023-01-03T03:51:45.009Z,21.75
2023-01-03T03:54:18.713Z,23.25
2023-01-03T03:56:53.080Z,23.25
2023-01-03T03:59:22.882Z,22.75
2023-01-03T04:01:52.536Z,28.25
2023-01-03T04:04:29.459Z,30.50
2023-01-03T04:06:57.250Z,26.75
2023-01-03T04:09:24.970Z,31.00
2023-01-03T04:11:52.752Z,25.75
2023-01-03T04:14:20.526Z,28.00
2023-01-03T04:16:48.395Z,21.00
2023-01-03T04:19:16.018Z,21.75
2023-01-03T04:21:43.578Z,25.75
2023-01-03T04:24:11.310Z,15.00
2023-01-03T04:26:38.934Z,25.75
2023-01-03T04:29:06.855Z,19.50
2023-01-03T04:31:35.403Z,21.00
2023-01-03T04:34:03.206Z,24.25
2023-01-03T04:36:30.892Z,22.25
2023-01-03T04:38:58.401Z,29.00
2023-01-03T04:41:26.036Z,25.00
2023-01-03T04:44:02.429Z,23.75
2023-01-03T04:46:36.625Z,29.00
2023-01-03T04:49:05.800Z,15.75
2023-01-03T04:51:36.550Z,27.25
2023-01-03T04:54:06.132Z,21.75
2023-01-03T04:56:36.653Z,26.25
2023-01-03T04:59:05.205Z,27.25
2023-01-03T05:01:33.083Z,28.25
2023-01-03T05:04:02.528Z,32.00
2023-01-03T05:06:30.281Z,30.75
2023-01-03T05:08:57.959Z,36.50
2023-01-03T05:11:25.636Z,42.00
2023-01-03T05:13:53.377Z,28.50
2023-01-03T05:16:21.099Z,28.67
2023-01-03T05:18:51.544Z,30.00
2023-01-03T05:21:40.560Z,33.75
2023-01-03T05:24:30.049Z,19.25
2023-01-03T05:27:00.943Z,22.50
2023-01-03T05:29:30.314Z,30.50
2023-01-03T05:31:59.672Z,33.25
2023-01-03T05:34:27.459Z,29.25
2023-01-03T05:36:55.118Z,33.50
2023-01-03T05:39:22.913Z,40.50
2023-01-03T05:41:59.658Z,27.00
2023-01-03T05:44:29.426Z,37.50
2023-01-03T05:46:58.668Z,36.75
2023-01-03T05:49:26.909Z,34.50
2023-01-03T05:51:54.488Z,35.75
2023-01-03T05:54:22.789Z,37.25
2023-01-03T05:56:51.379Z,33.50
2023-01-03T05:59:20.006Z,37.25
2023-01-03T06:01:47.650Z,23.25
2023-01-03T06:04:15.415Z,34.25
2023-01-03T06:06:43.332Z,36.00
2023-01-03T06:09:11.393Z,34.75
2023-01-03T06:11:41.272Z,30.00
2023-01-03T06:14:09.127Z,34.00
2023-01-03T06:16:59.384Z,29.00
2023-01-03T06:19:27.500Z,37.50
2023-01-03T06:21:55.156Z,32.00
2023-01-03T06:24:23.103Z,29.25
2023-01-03T06:26:50.686Z,36.25
2023-01-03T06:29:18.265Z,37.25
2023-01-03T06:31:45.836Z,35.25
2023-01-03T06:34:13.452Z,34.25
2023-01-03T06:36:41.041Z,35.00
2023-01-03T06:39:09.353Z,35.75
2023-01-03T06:41:38.074Z,32.00
2023-01-03T06:44:05.706Z,34.00
2023-01-03T06:46:51.699Z,35.00
2023-01-03T06:49:38.436Z,36.50
2023-01-03T06:52:31.681Z,39.50
2023-01-03T06:54:59.284Z,39.00
2023-01-03T06:57:27.547Z,32.75
2023-01-03T06:59:57.738Z,37.00
2023-01-03T07:02:26.252Z,36.50
2023-01-03T07:04:53.886Z,37.50
2023-01-03T07:07:21.519Z,37.25
2023-01-03T07:09:49.320Z,35.25
2023-01-03T07:12:38.275Z,25.00
2023-01-03T07:15:06.504Z,37.50
2023-01-03T07:17:35.646Z,44.25
2023-01-03T07:20:03.868Z,35.00
2023-01-03T07:22:31.839Z,29.00
2023-01-03T07:24:59.894Z,37.25
2023-01-03T07:27:27.929Z,27.25
2023-01-03T07:29:55.773Z,31.00
2023-01-03T07:32:23.482Z,32.75
2023-01-03T07:34:51.674Z,22.50
2023-01-03T07:37:20.222Z,30.00
2023-01-03T07:39:47.873Z,30.00
2023-01-03T07:42:34.777Z,27.25
2023-01-03T07:45:02.487Z,38.00
2023-01-03T07:47:30.228Z,28.25
2023-01-03T07:49:57.966Z,32.50
2023-01-03T07:52:27.749Z,32.25
2023-01-03T07:54:55.437Z,26.25
2023-01-03T07:57:23.185Z,27.75
2023-01-03T07:59:52.775Z,28.25
2023-01-03T08:02:21.028Z,27.25
2023-01-03T08:04:48.940Z,25.25
2023-01-03T08:07:16.711Z,23.00
2023-01-03T08:10:03.056Z,28.00
2023-01-03T08:12:49.888Z,25.00
2023-01-03T08:15:17.598Z,26.00
2023-01-03T08:17:45.380Z,23.50
2023-01-03T08:20:14.491Z,20.50
2023-01-03T08:22:42.241Z,23.75
2023-01-03T08:25:11.717Z,26.50
2023-01-03T08:27:42.817Z,17.75
2023-01-03T08:30:14.795Z,24.25
2023-01-03T08:32:42.890Z,27.75
2023-01-03T08:35:11.540Z,25.00
2023-01-03T08:37:39.559Z,23.25
2023-01-03T08:40:10.945Z,24.00
2023-01-03T08:42:39.745Z,22.75
2023-01-03T08:45:12.716Z,20.75
2023-01-03T08:47:43.170Z,22.50
2023-01-03T08:50:13.274Z,22.00
2023-01-03T08:52:41.419Z,19.33
2023-01-03T08:55:10.007Z,17.50
2023-01-03T08:57:38.148Z,14.33
2023-01-03T09:00:06.840Z,15.25
2023-01-03T09:02:36.565Z,17.00
2023-01-03T09:25:37.117Z,20.00
2023-01-03T09:28:15.371Z,22.25
2023-01-03T09:31:02.133Z,19.25
2023-01-03T09:39:28.703Z,19.25
2023-01-03T09:42:21.387Z,18.67
2023-01-03T09:54:00.810Z,17.67
2023-01-03T09:56:51.723Z,17.00
2023-01-03T09:59:38.095Z,23.00
2023-01-03T10:03:02.235Z,20.67
2023-01-03T10:06:07.570Z,19.00
2023-01-03T10:08:42.444Z,21.00
2023-01-03T10:11:26.709Z,22.00
2023-01-03T10:14:32.045Z,21.67
2023-01-03T10:17:11.873Z,16.00
2023-01-03T10:19:57.570Z,15.00
2023-01-03T10:22:28.953Z,19.00
2023-01-03T10:24:59.665Z,12.33
2023-01-03T10:27:30.201Z,18.00
2023-01-03T10:30:02.148Z,12.67
2023-01-03T10:32:57.560Z,15.67
2023-01-03T10:35:33.370Z,15.50
2023-01-03T10:38:01.367Z,16.67
2023-01-03T10:40:40.431Z,12.50
2023-01-03T10:43:41.267Z,16.67
2023-01-03T10:46:23.803Z,15.00
2023-01-03T10:49:26.136Z,18.33
2023-01-03T10:51:47.287Z,19.00
2023-01-03T10:54:17.953Z,22.00
2023-01-03T10:56:47.657Z,18.00
2023-01-03T10:59:15.423Z,15.75
2023-01-03T11:02:09.503Z,18.00
2023-01-03T11:04:39.837Z,17.25
2023-01-03T11:07:13.585Z,13.75
2023-01-03T11:09:54.594Z,19.25
2023-01-03T11:12:37.749Z,16.50
2023-01-03T11:15:38.014Z,16.75
2023-01-03T11:18:17.864Z,13.50
2023-01-03T11:21:10.244Z,14.00
2023-01-03T11:24:01.733Z,19.50
2023-01-03T11:26:55.073Z,15.25
2023-01-03T11:29:25.598Z,19.67
2023-01-03T11:32:19.227Z,19.50
2023-01-03T11:35:25.593Z,16.67
2023-01-03T11:38:01.531Z,21.00
2023-01-03T11:40:58.248Z,12.33
2023-01-03T11:43:34.880Z,20.33
2023-01-03T11:46:21.430Z,28.67
2023-01-03T11:49:02.256Z,22.67
2023-01-03T11:51:42.178Z,22.00
2023-01-03T11:54:32.319Z,27.67
2023-01-03T11:57:12.574Z,5.33
2023-01-03T11:59:46.469Z,23.67
2023-01-03T12:02:32.584Z,26.00
2023-01-03T12:05:35.253Z,22.00
2023-01-03T12:08:18.051Z,27.00
2023-01-03T12:10:48.466Z,24.00
2023-01-03T12:13:42.224Z,27.33
2023-01-03T12:16:23.655Z,28.67
2023-01-03T12:19:11.914Z,31.67
2023-01-03T12:21:50.435Z,28.33
2023-01-03T12:24:30.465Z,22.33
2023-01-03T12:27:10.603Z,26.33
2023-01-03T12:29:41.239Z,31.75
2023-01-03T12:32:41.613Z,24.75
2023-01-03T12:35:20.472Z,29.25
2023-01-03T12:37:51.015Z,22.33
2023-01-03T12:40:40.963Z,34.00
2023-01-03T12:43:26.725Z,24.00
2023-01-03T12:46:12.171Z,34.75
2023-01-03T12:49:09.632Z,36.00
2023-01-03T12:51:37.993Z,25.25
2023-01-03T12:54:15.224Z,33.50
2023-01-03T12:57:13.517Z,31.50
2023-01-03T13:00:44.823Z,32.25
2023-01-03T13:03:40.805Z,38.00
2023-01-03T13:06:19.888Z,43.25
2023-01-03T13:09:20.553Z,40.00
2023-01-03T13:11:53.734Z,36.75
2023-01-03T13:14:27.559Z,39.00
2023-01-03T13:17:07.170Z,37.00
2023-01-03T13:19:35.626Z,28.50
2023-01-03T13:22:50.975Z,36.00
2023-01-03T13:25:27.374Z,36.50
2023-01-03T13:28:15.048Z,39.75
2023-01-03T13:30:42.903Z,38.50
2023-01-03T13:33:10.602Z,34.75
2023-01-03T13:35:44.853Z,38.25
2023-01-03T13:38:24.801Z,37.75
2023-01-03T13:43:50.291Z,40.50
2023-01-03T13:46:23.449Z,36.75
2023-01-03T13:49:06.855Z,40.00
2023-01-03T13:51:54.199Z,38.50
2023-01-03T13:54:25.382Z,41.50
2023-01-03T13:56:53.461Z,39.50
2023-01-03T13:59:35.071Z,41.00
2023-01-03T14:02:12.684Z,39.75
2023-01-03T14:05:13.695Z,44.00
2023-01-03T14:08:00.510Z,40.25
2023-01-03T14:10:37.174Z,41.25
2023-01-03T14:13:20.371Z,43.50
2023-01-03T14:15:50.381Z,38.50
2023-01-03T14:18:26.801Z,43.50
2023-01-03T14:20:58.213Z,42.75
2023-01-03T14:26:18.537Z,44.25
2023-01-03T14:28:50.083Z,37.75
2023-01-03T14:31:24.860Z,41.75
2023-01-03T14:33:57.525Z,42.50
2023-01-03T14:36:26.079Z,42.00
2023-01-03T14:38:59.754Z,45.25
2023-01-03T14:41:38.365Z,41.00
2023-01-03T14:44:17.353Z,45.00
2023-01-03T14:46:55.486Z,43.50
2023-01-03T14:49:41.957Z,44.75
2023-01-03T14:52:28.132Z,42.75
2023-01-03T14:55:04.391Z,43.25
2023-01-03T14:57:40.311Z,44.75
2023-01-03T15:00:17.139Z,46.25
2023-01-03T15:02:46.566Z,43.75
2023-01-03T15:05:29.799Z,47.50
2023-01-03T15:08:13.133Z,45.00
2023-01-03T15:10:56.181Z,46.25
2023-01-03T15:13:39.947Z,42.50
2023-01-03T15:16:20.990Z,42.75
2023-01-03T15:18:49.426Z,45.75
2023-01-03T15:21:19.403Z,45.00
2023-01-03T15:23:50.048Z,49.00
2023-01-03T15:26:41.360Z,46.00
2023-01-03T15:29:14.482Z,44.00
2023-01-03T15:32:01.488Z,41.00
2023-01-03T15:34:29.650Z,39.50
2023-01-03T15:37:13.957Z,43.00
2023-01-03T15:39:52.888Z,46.25
2023-01-03T15:42:45.310Z,42.25
2023-01-03T15:45:27.644Z,43.75
2023-01-03T15:47:59.994Z,41.75
2023-01-03T15:50:43.356Z,45.00
2023-01-03T15:53:21.967Z,42.25
2023-01-03T15:55:57.595Z,42.25
2023-01-03T15:58:27.490Z,45.50
2023-01-03T16:00:56.317Z,45.00
2023-01-03T16:03:28.276Z,45.75
2023-01-03T16:05:56.635Z,44.50
2023-01-03T16:08:28.505Z,46.00
2023-01-03T16:11:02.599Z,47.00
2023-01-03T16:13:37.341Z,46.75
2023-01-03T16:16:07.171Z,45.00
2023-01-03T16:18:42.967Z,45.00
2023-01-03T16:21:12.078Z,49.00
2023-01-03T16:23:40.073Z,46.00
2023-01-03T16:26:08.741Z,42.00
2023-01-03T16:28:36.796Z,48.75
2023-01-03T16:31:14.409Z,39.25
2023-01-03T16:33:43.224Z,46.25
2023-01-03T16:36:39.818Z,43.25
2023-01-03T16:39:19.261Z,44.50
2023-01-03T16:42:07.637Z,38.00
2023-01-03T16:44:40.439Z,42.75
2023-01-03T16:47:16.019Z,43.00
2023-01-03T16:49:47.077Z,45.50
2023-01-03T16:52:20.506Z,40.00
2023-01-03T16:54:50.263Z,44.50
2023-01-03T16:57:20.229Z,45.50
2023-01-03T16:59:49.459Z,39.75
2023-01-03T17:02:17.586Z,43.75
2023-01-03T17:04:45.887Z,45.50
2023-01-03T17:07:24.124Z,45.75
2023-01-03T17:09:52.958Z,44.00
2023-01-03T17:12:24.184Z,44.25
2023-01-03T17:14:52.522Z,43.50
2023-01-03T17:17:22.931Z,43.00
2023-01-03T17:20:06.811Z,41.75
2023-01-03T17:22:36.148Z,43.75
2023-01-03T17:25:04.521Z,43.25
2023-01-03T17:27:33.565Z,43.75
2023-01-03T17:30:05.904Z,46.25
2023-01-03T17:32:34.264Z,45.25
2023-01-03T17:35:03.640Z,46.50
2023-01-03T17:37:40.899Z,38.00
2023-01-03T17:40:29.244Z,42.25
2023-01-03T17:43:01.259Z,43.75
2023-01-03T17:45:48.014Z,42.00
2023-01-03T17:48:34.581Z,43.25
2023-01-03T17:51:03.309Z,42.25
2023-01-03T17:53:31.263Z,40.25
2023-01-03T17:55:59.643Z,43.00
2023-01-03T17:58:35.851Z,45.00
2023-01-03T18:01:04.435Z,43.50
2023-01-03T18:03:32.817Z,45.00
2023-01-03T18:06:06.813Z,44.25
2023-01-03T18:08:35.370Z,41.25
2023-01-03T18:11:06.632Z,39.00
2023-01-03T18:13:38.764Z,43.00
2023-01-03T18:16:07.383Z,40.50
2023-01-03T18:18:35.449Z,39.25
2023-01-03T18:21:05.846Z,41.25
2023-01-03T18:23:38.046Z,47.25
2023-01-03T18:26:13.463Z,40.25
2023-01-03T18:28:41.118Z,44.25
2023-01-03T18:31:19.599Z,40.25
2023-01-03T18:33:47.549Z,42.75
2023-01-03T18:36:32.516Z,41.75
2023-01-03T18:39:15.862Z,43.75
2023-01-03T18:41:44.176Z,42.50
2023-01-03T18:44:21.259Z,43.75
2023-01-03T18:46:49.650Z,43.50
2023-01-03T18:49:18.680Z,41.00
2023-01-03T18:51:49.754Z,45.00
2023-01-03T18:54:19.944Z,45.50
2023-01-03T18:56:47.697Z,46.75
2023-01-03T18:59:27.018Z,41.50
2023-01-03T19:01:55.794Z,43.25
2023-01-03T19:04:26.459Z,43.25
2023-01-03T19:06:54.315Z,44.75
2023-01-03T19:09:24.857Z,43.50
2023-01-03T19:11:54.641Z,43.50
2023-01-03T19:14:22.332Z,44.75
2023-01-03T19:16:50.035Z,42.75
2023-01-03T19:19:17.903Z,47.50
2023-01-03T19:21:47.323Z,43.75
2023-01-03T19:24:39.316Z,43.00
2023-01-03T19:27:15.470Z,40.25
2023-01-03T19:29:44.649Z,41.50
2023-01-03T19:32:19.385Z,43.50
2023-01-03T19:34:48.076Z,42.00
2023-01-03T19:37:16.246Z,41.00
2023-01-03T19:39:44.037Z,42.75
2023-01-03T19:42:37.480Z,41.50
2023-01-03T19:45:17.666Z,39.50
2023-01-03T19:47:45.479Z,44.25
2023-01-03T19:50:26.067Z,42.50
2023-01-03T19:52:54.743Z,39.75
2023-01-03T19:55:29.935Z,39.25
2023-01-03T19:58:01.640Z,41.75
2023-01-03T20:00:37.264Z,38.75
2023-01-03T20:03:20.807Z,42.00
2023-01-03T20:05:51.010Z,39.75
2023-01-03T20:08:19.930Z,37.25
2023-01-03T20:10:51.270Z,42.25
2023-01-03T20:13:23.547Z,45.25
2023-01-03T20:15:54.651Z,40.75
2023-01-03T20:18:25.836Z,42.75
2023-01-03T20:20:57.530Z,40.00
2023-01-03T20:23:29.268Z,44.50
2023-01-03T20:25:57.386Z,45.50
2023-01-03T20:28:31.595Z,39.25
2023-01-03T20:31:02.706Z,38.25
2023-01-03T20:33:31.079Z,45.25
2023-01-03T20:36:14.411Z,45.00
2023-01-03T20:38:48.171Z,40.75
2023-01-03T20:41:17.899Z,44.25
2023-01-03T20:43:47.676Z,46.25
2023-01-03T20:46:20.352Z,41.25
2023-01-03T20:48:56.278Z,41.75
2023-01-03T20:51:25.121Z,37.50
2023-01-03T20:53:55.468Z,46.00
2023-01-03T20:56:24.165Z,43.25
2023-01-03T20:58:53.170Z,40.50
2023-01-03T21:01:21.709Z,41.25
2023-01-03T21:03:49.920Z,42.25
2023-01-03T21:06:24.122Z,45.75
2023-01-03T21:08:54.824Z,40.50
2023-01-03T21:11:31.023Z,43.25
2023-01-03T21:14:00.481Z,45.50
2023-01-03T21:16:32.863Z,40.50
2023-01-03T21:19:27.197Z,42.25
2023-01-03T21:21:56.292Z,43.25
2023-01-03T21:24:24.964Z,46.50
2023-01-03T21:26:53.034Z,41.50
2023-01-03T21:29:22.246Z,44.25
2023-01-03T21:31:50.180Z,44.50
2023-01-03T21:34:20.453Z,40.75
2023-01-03T21:36:48.693Z,40.00
2023-01-03T21:39:17.146Z,37.75
2023-01-03T21:42:03.699Z,41.00
2023-01-03T21:44:33.390Z,40.25
2023-01-03T21:47:01.158Z,37.50
2023-01-03T21:49:29.168Z,41.50
2023-01-03T21:51:56.831Z,37.75
2023-01-03T21:54:24.616Z,44.00
2023-01-03T21:56:52.241Z,40.25
2023-01-03T21:59:22.241Z,45.75
2023-01-03T22:02:08.792Z,41.00
2023-01-03T22:04:36.634Z,37.00
2023-01-03T22:07:04.212Z,37.00
2023-01-03T22:09:50.639Z,46.50
2023-01-03T22:12:19.284Z,41.25
2023-01-03T22:14:47.311Z,31.00
2023-01-03T22:17:16.883Z,38.50
2023-01-03T22:19:45.185Z,44.25
2023-01-03T22:22:12.710Z,38.75
2023-01-03T22:24:40.715Z,45.50
2023-01-03T22:27:08.897Z,40.50
2023-01-03T22:29:36.692Z,43.50
2023-01-03T22:32:04.650Z,42.50
2023-01-03T22:34:32.914Z,40.00
2023-01-03T22:37:00.605Z,43.00
2023-01-03T22:39:28.314Z,39.00
2023-01-03T22:41:56.769Z,42.50
2023-01-03T22:44:24.381Z,40.25
2023-01-03T22:46:51.933Z,41.00
2023-01-03T22:49:20.524Z,32.75
2023-01-03T22:51:48.439Z,40.25
2023-01-03T22:54:16.079Z,29.75
2023-01-03T22:56:44.926Z,43.75
2023-01-03T22:59:13.012Z,39.75
2023-01-03T23:01:40.824Z,41.75
2023-01-03T23:04:09.005Z,41.50
2023-01-03T23:06:37.425Z,38.50
2023-01-03T23:09:06.034Z,38.25
2023-01-03T23:11:52.768Z,41.00
2023-01-03T23:14:25.867Z,36.50
2023-01-03T23:16:57.845Z,41.75
2023-01-03T23:19:26.965Z,37.25
2023-01-03T23:21:58.466Z,37.00
2023-01-03T23:24:26.377Z,36.25
2023-01-03T23:26:54.230Z,36.25
2023-01-03T23:29:23.198Z,31.50
2023-01-03T23:31:50.953Z,39.00
2023-01-03T23:34:18.539Z,34.00
2023-01-03T23:36:46.211Z,40.50
2023-01-03T23:39:16.648Z,38.00
2023-01-03T23:41:44.990Z,36.75
2023-01-03T23:44:12.726Z,36.00
2023-01-03T23:46:41.897Z,34.25
2023-01-03T23:49:11.899Z,39.00
2023-01-03T23:51:39.433Z,39.00
2023-01-03T23:54:06.964Z,39.00
2023-01-03T23:56:34.554Z,38.50
2023-01-03T23:59:02.442Z,37.00
